Latest Weather Observations for Edinburgh

IDS60801

Issued at 10:41 am CST Tuesday 16 August 2022 (issued every 10 minutes, with the page automatically refreshed every 10 minutes)

About weather observations | Map of weather stations | Latest weather observations for SA | Other Formats
Station Details ID: 023083 Name: EDINBURGH RAAF Lat: -34.71 Lon: 138.62 Height: 16.54 m
Data from the previous 72 hours. | See also: Recent months at Edinburgh
Date/Time
CST
Temp
°C
App
Temp
°C
Dew
Point
°C
Rel
Hum
%
Delta-T
°C
Wind Press
QNH
hPa
Press
MSL
hPa
Rain since
9am
mm
Dir  Spd
km/h
Gust
km/h
Spd
kts
Gust
kts
16/10:30am 14.8 11.0 7.6 62 3.6 SSW 17 24 9 13 1021.1 1021.1 0.0
16/10:00am 13.8 10.3 8.8 72 2.5 SSW 17 22 9 12 1020.9 1020.9 0.0
16/09:30am 13.1 9.8 9.4 78 1.9 SSW 17 22 9 12 1020.7 1020.7 0.0
16/09:00am 12.3 11.7 10.4 88 1.0 ESE 4 9 2 5 1020.3 1020.3 1.0
16/08:30am 9.6 7.9 8.5 93 0.5 NE 7 11 4 6 1020.4 1020.4 1.0
16/08:00am 9.5 8.8 8.6 94 0.4 SE 2 6 1 3 1020.0 1020.0 1.0
16/07:30am 8.4 6.1 7.5 94 0.4 SSE 9 15 5 8 1019.8 1019.8 0.8
16/07:00am 7.1 4.9 6.2 94 0.4 NNE 7 9 4 5 1019.4 1019.4 0.8
16/06:30am 7.0 5.0 6.1 94 0.4 ENE 6 7 3 4 1018.8 1018.8 0.8
16/06:00am 6.7 4.6 5.8 94 0.4 E 6 7 3 4 1018.2 1018.2 0.8
16/05:48am 6.5 3.8 5.6 94 0.4 ENE 9 11 5 6 1018.2 1018.2 0.8
16/05:30am 6.1 4.2 5.1 93 0.4 N 4 6 2 3 1018.2 1018.2 0.8
16/05:00am 5.4 2.8 4.4 93 0.4 NNE 7 11 4 6 1017.5 1017.5 0.8
16/04:36am 6.8 4.5 5.7 93 0.5 NE 7 9 4 5 1016.7 1016.7 0.8
16/04:30am 7.4 5.2 6.3 93 0.5 ENE 7 7 4 4 1016.7 1016.7 0.8
16/04:00am 8.0 6.5 6.9 93 0.5 ENE 4 6 2 3 1016.6 1016.6 0.8
16/03:30am 8.0 6.1 6.9 93 0.5 ENE 6 9 3 5 1016.5 1016.5 0.8
16/03:00am 7.7 5.8 6.6 93 0.5 ENE 6 7 3 4 1016.4 1016.4 0.8
16/02:30am 5.7 3.1 4.2 90 0.6 NE 7 9 4 5 1016.4 1016.4 0.8
16/02:22am 6.5 5.0 5.0 90 0.7 E 2 7 1 4 1016.4 1016.4 0.8
16/02:00am 7.9 7.1 6.4 90 0.7 CALM 0 0 0 0 1016.5 1016.5 0.8
16/01:30am 9.4 7.8 7.8 90 0.8 S 6 7 3 4 1016.5 1016.5 0.8
16/01:00am 9.9 8.1 8.0 88 0.9 S 7 11 4 6 1016.3 1016.3 0.8
16/12:30am 10.6 7.3 8.2 85 1.2 SW 15 20 8 11 1016.0 1016.0 0.8
16/12:00am 10.9 8.3 9.3 90 0.8 WSW 13 17 7 9 1016.0 1016.0 0.4
 
Date/Time
CST
Temp
°C
App
Temp
°C
Dew
Point
°C
Rel
Hum
%
Delta-T
°C
Wind Press
QNH
hPa
Press
MSL
hPa
Rain since
9am
mm
Dir  Spd
km/h
Gust
km/h
Spd
kts
Gust
kts
15/11:30pm 10.1 6.9 8.4 89 0.8 WSW 15 19 8 10 1015.7 1015.7 0.4
15/11:00pm 11.1 8.5 9.4 89 0.9 WSW 13 17 7 9 1015.4 1015.4 0.4
15/10:30pm 10.7 8.9 9.3 91 0.7 WSW 9 11 5 6 1015.3 1015.3 0.4
15/10:00pm 10.9 9.4 9.3 90 0.8 SW 7 9 4 5 1014.8 1014.8 0.4
15/09:30pm 11.3 9.5 9.6 89 0.9 SSW 9 13 5 7 1014.7 1014.7 0.4
15/09:00pm 11.3 9.5 9.6 89 0.9 SSW 9 13 5 7 1014.5 1014.5 0.4
15/08:30pm 10.9 9.6 9.3 90 0.8 SSW 6 9 3 5 1014.1 1014.1 0.2
15/08:00pm 10.6 9.1 9.0 90 0.8 SW 7 9 4 5 1013.9 1013.9 0.2
15/07:30pm 11.0 8.7 8.9 87 1.0 SSW 11 13 6 7 1013.6 1013.6 0.2
15/07:00pm 11.2 8.4 8.6 84 1.3 SSW 13 17 7 9 1013.2 1013.2 0.2
15/06:30pm 11.4 7.6 9.0 85 1.2 WSW 19 26 10 14 1012.4 1012.4 0.2
15/06:00pm 12.2 8.6 9.9 86 1.2 WSW 19 24 10 13 1012.0 1012.0 0.0
15/05:30pm 12.3 8.6 9.3 82 1.5 WSW 19 22 10 12 1011.6 1011.6 0.0
15/05:00pm 12.5 8.6 9.5 82 1.5 WSW 20 24 11 13 1011.1 1011.1 0.0
15/04:30pm 13.8 10.1 9.5 75 2.2 WSW 19 22 10 12 1010.7 1010.7 0.0
15/04:00pm 14.0 10.0 9.0 72 2.5 WSW 20 24 11 13 1010.4 1010.4 0.0
15/03:30pm 14.5 10.5 9.1 70 2.8 WSW 20 26 11 14 1010.2 1010.2 0.0
15/03:00pm 14.5 10.6 8.7 68 2.9 WSW 19 22 10 12 1010.1 1010.1 0.0
15/02:30pm 14.0 10.1 9.6 75 2.3 WSW 20 24 11 13 1009.9 1009.9 0.0
15/02:00pm 14.7 10.9 9.9 73 2.5 WSW 20 26 11 14 1010.0 1010.0 0.0
15/01:30pm 14.3 9.7 9.5 73 2.5 WSW 24 28 13 15 1010.1 1010.1 0.0
15/01:00pm 14.2 10.3 9.6 74 2.4 WSW 20 26 11 14 1010.4 1010.4 0.0
15/12:30pm 14.0 9.7 9.2 73 2.4 WSW 22 26 12 14 1010.7 1010.7 0.0
15/12:00pm 14.1 9.4 9.3 73 2.5 WSW 24 30 13 16 1010.8 1010.8 0.0
15/11:40am 13.9 10.0 9.3 74 2.3 WSW 20 28 11 15 1010.9 1010.9 0.0
15/11:30am 13.5 9.7 9.2 75 2.2 W 19 24 10 13 1010.9 1010.9 0.0
15/11:00am 13.5 10.3 9.9 79 1.9 W 17 22 9 12 1011.1 1011.1 0.0
15/10:30am 12.9 10.1 10.1 83 1.4 NW 15 20 8 11 1011.1 1011.1 0.0
15/10:00am 12.2 10.1 9.9 86 1.2 NW 11 17 6 9 1011.4 1011.4 0.0
15/09:30am 11.7 9.6 9.9 89 0.9 NW 11 15 6 8 1011.4 1011.4 0.0
15/09:00am 11.0 9.1 9.1 88 0.9 NNE 9 11 5 6 1011.5 1011.5 0.2
15/08:55am 10.8 8.8 8.7 87 1.0 N 9 13 5 7 1011.5 1011.5 0.2
15/08:30am 10.3 8.2 8.4 88 0.9 NNE 9 11 5 6 1011.3 1011.3 0.2
15/08:00am 9.3 7.4 7.7 90 0.8 NE 7 9 4 5 1011.3 1011.3 0.2
15/07:30am 8.9 6.6 7.4 90 0.7 NNE 9 11 5 6 1011.1 1011.1 0.2
15/07:00am 8.6 6.6 7.2 91 0.7 NNE 7 7 4 4 1011.0 1011.0 0.2
15/06:30am 8.7 6.4 7.3 91 0.7 N 9 13 5 7 1011.1 1011.1 0.2
15/06:00am 9.0 7.2 7.8 92 0.6 NNE 7 9 4 5 1011.0 1011.0 0.2
15/05:30am 9.0 7.2 7.8 92 0.6 NE 7 9 4 5 1011.1 1011.1 0.2
15/05:28am 9.0 7.2 7.8 92 0.6 NE 7 9 4 5 1011.1 1011.1 0.2
15/05:00am 9.1 7.5 7.9 92 0.6 NNE 6 7 3 4 1011.1 1011.1 0.2
15/04:46am 9.1 7.3 7.9 92 0.6 NNE 7 9 4 5 1011.0 1011.0 0.2
15/04:30am 9.3 7.5 7.9 91 0.7 NE 7 7 4 4 1011.1 1011.1 0.2
15/04:18am 9.4 7.7 8.2 92 0.6 ENE 7 9 4 5 1011.1 1011.1 0.2
15/04:00am 9.5 8.0 8.3 92 0.6 NE 6 9 3 5 1011.0 1011.0 0.2
15/03:30am 9.3 6.8 8.1 92 0.6 NE 11 13 6 7 1011.2 1011.2 0.2
15/03:00am 9.2 7.0 8.0 92 0.6 NE 9 11 5 6 1011.3 1011.3 0.2
15/02:30am 9.3 6.8 8.1 92 0.6 NE 11 13 6 7 1011.8 1011.8 0.2
15/02:00am 9.3 7.2 8.1 92 0.6 NE 9 11 5 6 1012.1 1012.1 0.2
15/01:30am 9.1 7.8 7.7 91 0.7 NNW 4 7 2 4 1012.7 1012.7 0.2
15/01:00am 8.8 6.5 7.4 91 0.7 N 9 11 5 6 1013.0 1013.0 0.0
15/12:30am 8.6 6.3 7.4 92 0.6 NNE 9 13 5 7 1013.0 1013.0 0.0
15/12:00am 8.6 6.3 7.5 93 0.5 N 9 11 5 6 1013.2 1013.2 0.0
 
Date/Time
CST
Temp
°C
App
Temp
°C
Dew
Point
°C
Rel
Hum
%
Delta-T
°C
Wind Press
QNH
hPa
Press
MSL
hPa
Rain since
9am
mm
Dir  Spd
km/h
Gust
km/h
Spd
kts
Gust
kts
14/11:30pm 8.7 6.4 7.6 93 0.5 NNE 9 11 5 6 1013.5 1013.5 0.0
14/11:00pm 8.6 6.7 7.5 93 0.5 NE 7 11 4 6 1013.7 1013.7 0.0
14/10:30pm 8.0 5.2 6.9 93 0.5 NE 11 13 6 7 1013.8 1013.8 0.0
14/10:00pm 8.1 5.3 6.9 92 0.6 NE 11 13 6 7 1014.0 1014.0 0.0
14/09:30pm 9.0 6.7 7.6 91 0.7 NE 9 11 5 6 1014.0 1014.0 0.0
14/09:00pm 9.3 7.5 8.1 92 0.6 NE 7 9 4 5 1014.0 1014.0 0.0
14/08:30pm 8.6 6.6 7.1 90 0.7 NW 7 9 4 5 1014.2 1014.2 0.0
14/08:00pm 9.6 9.1 7.9 89 0.8 CALM 0 0 0 0 1014.2 1014.2 0.0
14/07:30pm 11.2 10.5 8.6 84 1.3 SSW 2 6 1 3 1014.1 1014.1 0.0
14/07:00pm 11.5 10.2 9.1 85 1.2 WNW 6 6 3 3 1014.1 1014.1 0.0
14/06:30pm 11.6 10.1 9.0 84 1.3 WNW 7 9 4 5 1013.9 1013.9 0.0
14/06:00pm 12.2 10.6 8.7 79 1.7 WSW 7 9 4 5 1013.8 1013.8 0.0
14/05:30pm 12.4 10.0 8.7 78 1.8 WSW 11 15 6 8 1013.8 1013.8 0.0
14/05:00pm 12.5 8.7 9.1 80 1.7 WSW 19 24 10 13 1013.8 1013.8 0.0
14/04:30pm 13.3 9.4 8.8 74 2.3 WSW 19 26 10 14 1013.9 1013.9 0.0
14/04:00pm 13.4 9.6 9.1 75 2.2 W 19 24 10 13 1013.8 1013.8 0.0
14/03:30pm 13.8 10.9 9.5 75 2.2 W 15 20 8 11 1014.0 1014.0 0.0
14/03:00pm 14.0 10.6 9.2 73 2.4 W 17 20 9 11 1014.0 1014.0 0.0
14/02:30pm 14.7 11.0 9.3 70 2.8 WSW 19 24 10 13 1014.0 1014.0 0.0
14/02:00pm 14.7 10.2 8.4 66 3.2 WSW 22 28 12 15 1014.3 1014.3 0.0
14/01:30pm 14.8 10.1 9.4 70 2.8 W 24 30 13 16 1014.8 1014.8 0.0
14/01:00pm 15.0 10.6 10.4 74 2.4 WSW 24 32 13 17 1015.0 1015.0 0.0
14/12:30pm 14.9 10.5 10.3 74 2.4 W 24 32 13 17 1015.2 1015.2 0.0
14/12:00pm 14.0 9.4 9.8 76 2.2 W 24 30 13 16 1015.5 1015.5 0.0
14/11:30am 13.7 9.8 9.6 76 2.1 W 20 26 11 14 1015.7 1015.7 0.0
14/11:06am 13.4 9.2 9.6 78 1.9 WSW 22 26 12 14 1015.7 1015.7 0.0
14/11:00am 13.6 9.0 9.6 77 2.0 WSW 24 28 13 15 1015.8 1015.8 0.0
14/10:56am 14.3 9.8 9.9 75 2.3 WSW 24 28 13 15 1015.8 1015.8 0.0
14/10:50am 13.9 9.6 9.5 75 2.3 W 22 30 12 16 1015.8 1015.8 0.0
14/10:30am 14.1 10.7 11.1 82 1.6 W 20 28 11 15 1016.0 1016.0 0.0
14/10:27am 13.9 10.3 10.5 80 1.8 W 20 28 11 15 1016.0 1016.0 0.0
14/10:21am 14.0 10.8 11.2 83 1.5 W 19 26 10 14 1016.0 1016.0 0.0
14/10:00am 13.1 9.6 10.1 82 1.5 W 19 22 10 12 1016.0 1016.0 0.0
14/09:30am 12.1 11.2 10.7 91 0.7 ESE 6 11 3 6 1016.2 1016.2 0.0
14/09:00am 10.4 9.0 9.5 94 0.4 NNE 7 9 4 5 1016.2 1016.2 0.0
14/08:48am 9.7 8.1 8.8 94 0.4 NE 7 9 4 5 1016.3 1016.3 0.0
14/08:30am 8.6 6.7 7.7 94 0.4 NNE 7 9 4 5 1015.9 1015.9 0.0
14/08:06am 8.1 5.7 7.2 94 0.4 NNE 9 11 5 6 1015.9 1015.9 0.0
14/08:00am 8.0 5.6 7.1 94 0.4 NNE 9 9 5 5 1015.8 1015.8 0.0
14/07:56am 7.9 5.9 7.0 94 0.4 NNE 7 9 4 5 1015.8 1015.8 0.0
14/07:52am 7.7 5.6 6.6 93 0.5 NNE 7 9 4 5 1015.7 1015.7 0.0
14/07:30am 8.6 6.7 7.7 94 0.4 NNE 7 11 4 6 1015.6 1015.6 0.0
14/07:00am 8.2 5.9 7.3 94 0.4 NNE 9 11 5 6 1015.2 1015.2 0.0
14/06:30am 7.6 4.7 6.7 94 0.4 NNE 11 13 6 7 1014.8 1014.8 0.0
14/06:19am 7.4 4.9 6.5 94 0.4 NE 9 11 5 6 1014.8 1014.8 0.0
14/06:07am 6.8 4.1 5.7 93 0.5 NE 9 9 5 5 1014.6 1014.6 0.0
14/06:00am 6.6 3.9 5.6 93 0.4 NE 9 9 5 5 1014.5 1014.5 0.0
14/05:30am 6.7 4.0 5.7 93 0.4 NE 9 11 5 6 1014.4 1014.4 0.0
14/05:00am 7.3 4.3 6.2 93 0.5 NE 11 13 6 7 1014.3 1014.3 0.0
14/04:30am 6.7 4.6 5.7 93 0.4 ENE 6 7 3 4 1014.3 1014.3 0.0
14/04:00am 6.8 4.5 5.7 93 0.5 N 7 7 4 4 1014.1 1014.1 0.0
14/03:30am 7.4 5.5 6.5 94 0.4 NNW 6 6 3 3 1014.0 1014.0 0.0
14/03:23am 6.4 4.2 5.4 93 0.4 NNW 6 7 3 4 1014.0 1014.0 0.0
14/03:00am 6.4 5.4 5.4 93 0.4 CALM 0 6 0 3 1014.1 1014.1 0.0
14/02:48am 7.1 6.2 6.0 93 0.5 CALM 0 0 0 0 1014.1 1014.1 0.0
14/02:30am 5.8 3.8 4.6 92 0.5 N 4 9 2 5 1014.3 1014.3 0.0
14/02:29am 5.9 4.0 4.7 92 0.5 NNE 4 9 2 5 1014.4 1014.4 0.0
14/02:00am 7.7 6.2 6.6 93 0.5 ENE 4 7 2 4 1014.6 1014.6 0.0
14/01:30am 7.9 6.8 6.8 93 0.5 N 2 6 1 3 1014.8 1014.8 0.0
14/01:20am 6.8 4.7 5.7 93 0.5 NW 6 7 3 4 1014.8 1014.8 0.0
14/01:00am 6.2 3.9 4.8 91 0.6 N 6 7 3 4 1014.8 1014.8 0.0
14/12:30am 8.1 7.4 7.0 93 0.5 CALM 0 0 0 0 1014.8 1014.8 0.0
14/12:00am 7.8 6.6 6.6 92 0.6 NW 2 6 1 3 1014.7 1014.7 0.0
 
Date/Time
CST
Temp
°C
App
Temp
°C
Dew
Point
°C
Rel
Hum
%
Delta-T
°C
Wind Press
QNH
hPa
Press
MSL
hPa
Rain since
9am
mm
Dir  Spd
km/h
Gust
km/h
Spd
kts
Gust
kts
13/11:30pm 8.5 7.8 7.0 90 0.7 CALM 0 0 0 0 1015.0 1015.0 0.0
13/11:00pm 9.8 7.0 8.4 91 0.7 WSW 13 15 7 8 1015.1 1015.1 0.0
13/10:30pm 10.0 7.3 8.8 92 0.6 W 13 15 7 8 1015.1 1015.1 0.0
13/10:00pm 9.7 6.9 8.5 92 0.6 W 13 17 7 9 1015.2 1015.2 0.0
13/09:30pm 9.2 6.6 7.8 91 0.7 W 11 13 6 7 1015.2 1015.2 0.0
13/09:00pm 10.0 7.5 8.4 90 0.8 WSW 11 13 6 7 1015.2 1015.2 0.0
13/08:30pm 10.3 7.3 9.1 92 0.6 WSW 15 17 8 9 1015.0 1015.0 0.0
13/08:00pm 9.7 6.8 8.3 91 0.7 W 13 15 7 8 1014.7 1014.7 0.0
13/07:30pm 9.5 7.0 8.3 92 0.6 WSW 11 13 6 7 1014.5 1014.5 0.0
13/07:00pm 9.2 6.6 7.6 90 0.8 W 11 13 6 7 1014.4 1014.4 0.0
13/06:30pm 9.8 6.8 7.7 87 1.0 WSW 13 15 7 8 1014.1 1014.1 0.0
13/06:00pm 10.6 7.8 8.4 86 1.1 WSW 13 17 7 9 1013.9 1013.9 0.0
13/05:30pm 11.4 8.2 8.3 81 1.5 WSW 15 19 8 10 1013.6 1013.6 0.0
13/05:00pm 12.7 8.4 8.0 73 2.3 WSW 20 24 11 13 1013.6 1013.6 0.0
13/04:30pm 13.5 9.0 8.4 71 2.5 SW 22 28 12 15 1013.4 1013.4 0.0
13/04:00pm 13.7 9.1 8.1 69 2.8 SW 22 28 12 15 1013.2 1013.2 0.0
13/03:30pm 14.2 9.4 9.0 71 2.6 WSW 24 33 13 18 1013.2 1013.2 0.0
13/03:00pm 14.1 8.9 8.9 71 2.6 WSW 26 33 14 18 1013.3 1013.3 0.0
13/02:30pm 14.5 9.5 8.0 65 3.2 SW 24 30 13 16 1013.1 1013.1 0.0
13/02:00pm 14.8 10.1 9.4 70 2.8 W 24 32 13 17 1013.1 1013.1 0.0
13/01:30pm 14.7 10.4 9.3 70 2.8 WSW 22 30 12 16 1013.2 1013.2 0.0
13/01:00pm 13.6 8.9 9.1 74 2.3 SW 24 30 13 16 1013.5 1013.5 0.0
13/12:48pm 14.1 9.0 9.3 73 2.5 WSW 26 33 14 18 1013.6 1013.6 0.0
13/12:37pm 14.7 9.5 10.3 75 2.3 W 28 33 15 18 1013.7 1013.7 0.0
13/12:30pm 14.7 10.1 10.9 78 2.0 W 26 33 14 18 1013.7 1013.7 0.0
13/12:19pm 14.4 9.1 10.0 75 2.3 W 28 33 15 18 1013.8 1013.8 0.0
13/12:03pm 13.4 8.4 9.6 78 1.9 WSW 26 33 14 18 1014.0 1014.0 0.0
13/12:02pm 13.4 8.9 10.0 80 1.8 WSW 24 32 13 17 1014.0 1014.0 0.0
13/12:00pm 13.4 8.5 10.0 80 1.8 WSW 26 32 14 17 1014.1 1014.1 0.0
13/11:30am 12.9 6.7 9.2 78 1.9 WSW 32 37 17 20 1014.1 1014.1 0.0
13/11:00am 12.6 6.3 9.8 83 1.4 W 33 41 18 22 1014.2 1014.2 0.0

Other formats

Comma delimited format used in spreadsheet applications
http://www.bom.gov.au/fwo/IDS60801/IDS60801.95676.axf

JavaScript Object Notation format (JSON) in row-major order
http://www.bom.gov.au/fwo/IDS60801/IDS60801.95676.json

Data quality

Most of these data are generated automatically and are frequently updated. Quality checks on data are not normally performed. It is possible for incorrect values to appear. Refer to information at About Latest Weather Observations and please check the disclaimer before using these data.